sensor_id;sensor_type;location;lat;lon;timestamp;P1;durP1;ratioP1;P2;durP2;ratioP2
66402;SDS011;53212;52.112;5.144;2023-04-01T00:00:52;15.00;;;7.10;;
66402;SDS011;53212;52.112;5.144;2023-04-01T00:03:19;15.30;;;8.20;;
66402;SDS011;53212;52.112;5.144;2023-04-01T00:05:46;20.00;;;8.70;;
66402;SDS011;53212;52.112;5.144;2023-04-01T00:08:12;18.00;;;7.30;;
66402;SDS011;53212;52.112;5.144;2023-04-01T00:10:38;12.80;;;6.60;;
66402;SDS011;53212;52.112;5.144;2023-04-01T00:13:03;17.40;;;7.80;;
66402;SDS011;53212;52.112;5.144;2023-04-01T00:15:29;15.60;;;7.40;;
66402;SDS011;53212;52.112;5.144;2023-04-01T00:17:55;18.40;;;8.30;;
66402;SDS011;53212;52.112;5.144;2023-04-01T00:20:21;15.40;;;7.50;;
66402;SDS011;53212;52.112;5.144;2023-04-01T00:22:46;14.80;;;8.20;;
66402;SDS011;53212;52.112;5.144;2023-04-01T00:25:12;21.20;;;9.20;;
66402;SDS011;53212;52.112;5.144;2023-04-01T00:27:38;18.30;;;8.90;;
66402;SDS011;53212;52.112;5.144;2023-04-01T00:30:04;15.70;;;9.50;;
66402;SDS011;53212;52.112;5.144;2023-04-01T00:32:30;16.00;;;9.20;;
66402;SDS011;53212;52.112;5.144;2023-04-01T00:34:56;17.70;;;10.10;;
66402;SDS011;53212;52.112;5.144;2023-04-01T00:37:24;15.40;;;9.50;;
66402;SDS011;53212;52.112;5.144;2023-04-01T00:39:49;13.00;;;9.10;;
66402;SDS011;53212;52.112;5.144;2023-04-01T00:42:15;15.10;;;10.00;;
66402;SDS011;53212;52.112;5.144;2023-04-01T00:44:41;14.30;;;8.50;;
66402;SDS011;53212;52.112;5.144;2023-04-01T00:47:07;14.90;;;9.80;;
66402;SDS011;53212;52.112;5.144;2023-04-01T00:49:35;12.50;;;8.40;;
66402;SDS011;53212;52.112;5.144;2023-04-01T00:52:05;11.80;;;9.10;;
66402;SDS011;53212;52.112;5.144;2023-04-01T00:54:33;14.30;;;9.60;;
66402;SDS011;53212;52.112;5.144;2023-04-01T00:57:09;10.70;;;7.70;;
66402;SDS011;53212;52.112;5.144;2023-04-01T00:59:48;12.10;;;8.00;;
66402;SDS011;53212;52.112;5.144;2023-04-01T01:02:17;12.00;;;8.00;;
66402;SDS011;53212;52.112;5.144;2023-04-01T01:04:43;12.80;;;8.40;;
66402;SDS011;53212;52.112;5.144;2023-04-01T01:10:17;12.20;;;8.00;;
66402;SDS011;53212;52.112;5.144;2023-04-01T01:15:49;10.40;;;6.80;;
66402;SDS011;53212;52.112;5.144;2023-04-01T01:24:59;7.90;;;5.80;;
66402;SDS011;53212;52.112;5.144;2023-04-01T01:27:27;8.40;;;5.60;;
66402;SDS011;53212;52.112;5.144;2023-04-01T01:32:59;6.40;;;4.60;;
66402;SDS011;53212;52.112;5.144;2023-04-01T01:35:46;7.30;;;4.80;;
66402;SDS011;53212;52.112;5.144;2023-04-01T01:38:16;5.60;;;4.60;;
66402;SDS011;53212;52.112;5.144;2023-04-01T01:40:47;6.50;;;4.80;;
66402;SDS011;53212;52.112;5.144;2023-04-01T01:43:21;5.90;;;4.20;;
66402;SDS011;53212;52.112;5.144;2023-04-01T01:45:52;6.80;;;4.60;;
66402;SDS011;53212;52.112;5.144;2023-04-01T01:48:21;7.10;;;4.10;;
66402;SDS011;53212;52.112;5.144;2023-04-01T01:50:48;5.10;;;4.10;;
66402;SDS011;53212;52.112;5.144;2023-04-01T01:53:15;8.00;;;4.30;;
66402;SDS011;53212;52.112;5.144;2023-04-01T01:55:43;6.40;;;4.10;;
66402;SDS011;53212;52.112;5.144;2023-04-01T01:58:22;6.70;;;4.60;;
66402;SDS011;53212;52.112;5.144;2023-04-01T02:00:54;5.70;;;4.00;;
66402;SDS011;53212;52.112;5.144;2023-04-01T02:03:24;6.60;;;4.40;;
66402;SDS011;53212;52.112;5.144;2023-04-01T02:05:52;9.30;;;5.00;;
66402;SDS011;53212;52.112;5.144;2023-04-01T02:08:34;7.40;;;4.10;;
66402;SDS011;53212;52.112;5.144;2023-04-01T02:11:05;6.80;;;4.00;;
66402;SDS011;53212;52.112;5.144;2023-04-01T02:13:45;7.50;;;4.00;;
66402;SDS011;53212;52.112;5.144;2023-04-01T02:16:28;7.60;;;4.20;;
66402;SDS011;53212;52.112;5.144;2023-04-01T02:18:57;6.10;;;3.90;;
66402;SDS011;53212;52.112;5.144;2023-04-01T02:21:27;8.30;;;4.40;;
66402;SDS011;53212;52.112;5.144;2023-04-01T02:23:56;8.70;;;4.20;;
66402;SDS011;53212;52.112;5.144;2023-04-01T02:26:25;8.00;;;4.40;;
66402;SDS011;53212;52.112;5.144;2023-04-01T02:28:52;9.00;;;4.90;;
66402;SDS011;53212;52.112;5.144;2023-04-01T02:31:19;7.10;;;4.50;;
66402;SDS011;53212;52.112;5.144;2023-04-01T02:33:45;6.10;;;3.80;;
66402;SDS011;53212;52.112;5.144;2023-04-01T02:36:13;8.40;;;4.60;;
66402;SDS011;53212;52.112;5.144;2023-04-01T02:38:40;6.10;;;4.10;;
66402;SDS011;53212;52.112;5.144;2023-04-01T02:41:08;8.00;;;4.50;;
66402;SDS011;53212;52.112;5.144;2023-04-01T02:43:34;6.80;;;4.00;;
66402;SDS011;53212;52.112;5.144;2023-04-01T02:45:59;5.60;;;4.00;;
66402;SDS011;53212;52.112;5.144;2023-04-01T02:48:26;6.60;;;4.00;;
66402;SDS011;53212;52.112;5.144;2023-04-01T02:50:51;5.20;;;3.90;;
66402;SDS011;53212;52.112;5.144;2023-04-01T02:53:17;7.00;;;3.80;;
66402;SDS011;53212;52.112;5.144;2023-04-01T02:55:42;4.90;;;4.00;;
66402;SDS011;53212;52.112;5.144;2023-04-01T02:58:08;4.70;;;4.30;;
66402;SDS011;53212;52.112;5.144;2023-04-01T03:00:33;5.40;;;4.30;;
66402;SDS011;53212;52.112;5.144;2023-04-01T03:02:59;4.40;;;4.00;;
66402;SDS011;53212;52.112;5.144;2023-04-01T03:05:25;6.50;;;4.80;;
66402;SDS011;53212;52.112;5.144;2023-04-01T03:07:50;5.80;;;5.30;;
66402;SDS011;53212;52.112;5.144;2023-04-01T03:10:16;5.60;;;5.10;;
66402;SDS011;53212;52.112;5.144;2023-04-01T03:12:42;7.10;;;5.70;;
66402;SDS011;53212;52.112;5.144;2023-04-01T03:15:12;5.40;;;4.90;;
66402;SDS011;53212;52.112;5.144;2023-04-01T03:17:40;6.10;;;5.30;;
66402;SDS011;53212;52.112;5.144;2023-04-01T03:20:07;7.20;;;5.90;;
66402;SDS011;53212;52.112;5.144;2023-04-01T03:22:36;5.80;;;5.10;;
66402;SDS011;53212;52.112;5.144;2023-04-01T03:25:03;5.80;;;5.10;;
66402;SDS011;53212;52.112;5.144;2023-04-01T03:27:30;6.10;;;4.90;;
66402;SDS011;53212;52.112;5.144;2023-04-01T03:29:55;5.40;;;4.90;;
66402;SDS011;53212;52.112;5.144;2023-04-01T03:32:20;5.20;;;4.80;;
66402;SDS011;53212;52.112;5.144;2023-04-01T03:34:46;6.10;;;5.10;;
66402;SDS011;53212;52.112;5.144;2023-04-01T03:37:11;5.60;;;5.10;;
66402;SDS011;53212;52.112;5.144;2023-04-01T03:39:37;5.40;;;4.90;;
66402;SDS011;53212;52.112;5.144;2023-04-01T03:42:03;6.30;;;5.50;;
66402;SDS011;53212;52.112;5.144;2023-04-01T03:44:31;6.00;;;5.00;;
66402;SDS011;53212;52.112;5.144;2023-04-01T03:46:57;6.20;;;5.60;;
66402;SDS011;53212;52.112;5.144;2023-04-01T03:49:23;6.60;;;5.90;;
66402;SDS011;53212;52.112;5.144;2023-04-01T03:51:48;6.00;;;5.40;;
66402;SDS011;53212;52.112;5.144;2023-04-01T03:54:14;8.20;;;6.30;;
66402;SDS011;53212;52.112;5.144;2023-04-01T03:56:39;7.00;;;6.30;;
66402;SDS011;53212;52.112;5.144;2023-04-01T03:59:08;7.30;;;6.60;;
66402;SDS011;53212;52.112;5.144;2023-04-01T04:01:34;7.10;;;6.50;;
66402;SDS011;53212;52.112;5.144;2023-04-01T04:04:00;7.30;;;6.60;;
66402;SDS011;53212;52.112;5.144;2023-04-01T04:06:27;7.40;;;6.60;;
66402;SDS011;53212;52.112;5.144;2023-04-01T04:08:53;7.70;;;6.90;;
66402;SDS011;53212;52.112;5.144;2023-04-01T04:11:19;9.20;;;8.00;;
66402;SDS011;53212;52.112;5.144;2023-04-01T04:13:45;8.80;;;8.00;;
66402;SDS011;53212;52.112;5.144;2023-04-01T04:16:13;8.30;;;7.50;;
66402;SDS011;53212;52.112;5.144;2023-04-01T04:18:39;8.40;;;7.50;;
66402;SDS011;53212;52.112;5.144;2023-04-01T04:21:05;9.60;;;8.60;;
66402;SDS011;53212;52.112;5.144;2023-04-01T04:23:31;8.10;;;7.30;;
66402;SDS011;53212;52.112;5.144;2023-04-01T04:26:08;9.20;;;8.20;;
66402;SDS011;53212;52.112;5.144;2023-04-01T04:28:36;8.00;;;7.20;;
66402;SDS011;53212;52.112;5.144;2023-04-01T04:31:01;6.90;;;6.30;;
66402;SDS011;53212;52.112;5.144;2023-04-01T04:33:29;6.00;;;5.40;;
66402;SDS011;53212;52.112;5.144;2023-04-01T04:35:56;5.20;;;4.80;;
66402;SDS011;53212;52.112;5.144;2023-04-01T04:38:22;5.70;;;5.20;;
66402;SDS011;53212;52.112;5.144;2023-04-01T04:40:48;5.40;;;4.90;;
66402;SDS011;53212;52.112;5.144;2023-04-01T04:43:14;6.70;;;6.10;;
66402;SDS011;53212;52.112;5.144;2023-04-01T04:45:41;6.40;;;5.80;;
66402;SDS011;53212;52.112;5.144;2023-04-01T04:48:08;7.60;;;6.60;;
66402;SDS011;53212;52.112;5.144;2023-04-01T04:50:35;6.80;;;6.20;;
66402;SDS011;53212;52.112;5.144;2023-04-01T04:53:01;7.20;;;6.60;;
66402;SDS011;53212;52.112;5.144;2023-04-01T04:55:27;7.50;;;6.80;;
66402;SDS011;53212;52.112;5.144;2023-04-01T04:57:53;7.40;;;6.80;;
66402;SDS011;53212;52.112;5.144;2023-04-01T05:00:18;7.30;;;6.60;;
66402;SDS011;53212;52.112;5.144;2023-04-01T05:02:44;7.60;;;6.90;;
66402;SDS011;53212;52.112;5.144;2023-04-01T05:05:09;8.10;;;7.30;;
66402;SDS011;53212;52.112;5.144;2023-04-01T05:07:35;8.60;;;7.90;;
66402;SDS011;53212;52.112;5.144;2023-04-01T05:10:01;7.60;;;7.00;;
66402;SDS011;53212;52.112;5.144;2023-04-01T05:12:26;8.40;;;7.60;;
66402;SDS011;53212;52.112;5.144;2023-04-01T05:14:52;9.20;;;8.30;;
66402;SDS011;53212;52.112;5.144;2023-04-01T05:17:17;9.60;;;8.70;;
66402;SDS011;53212;52.112;5.144;2023-04-01T05:19:42;10.10;;;9.20;;
66402;SDS011;53212;52.112;5.144;2023-04-01T05:22:08;9.80;;;8.90;;
66402;SDS011;53212;52.112;5.144;2023-04-01T05:24:33;10.40;;;9.50;;
66402;SDS011;53212;52.112;5.144;2023-04-01T05:26:59;9.30;;;8.40;;
66402;SDS011;53212;52.112;5.144;2023-04-01T05:29:25;9.50;;;8.60;;
66402;SDS011;53212;52.112;5.144;2023-04-01T05:31:51;10.00;;;9.10;;
66402;SDS011;53212;52.112;5.144;2023-04-01T05:34:17;9.60;;;8.80;;
66402;SDS011;53212;52.112;5.144;2023-04-01T05:36:43;10.30;;;9.20;;
66402;SDS011;53212;52.112;5.144;2023-04-01T05:39:09;10.20;;;9.30;;
66402;SDS011;53212;52.112;5.144;2023-04-01T05:41:35;11.30;;;10.30;;
66402;SDS011;53212;52.112;5.144;2023-04-01T05:44:01;9.90;;;9.00;;
66402;SDS011;53212;52.112;5.144;2023-04-01T05:46:27;10.30;;;9.40;;
66402;SDS011;53212;52.112;5.144;2023-04-01T05:48:53;10.70;;;9.70;;
66402;SDS011;53212;52.112;5.144;2023-04-01T05:51:18;9.90;;;9.00;;
66402;SDS011;53212;52.112;5.144;2023-04-01T05:53:43;11.10;;;10.00;;
66402;SDS011;53212;52.112;5.144;2023-04-01T05:56:09;10.80;;;9.80;;
66402;SDS011;53212;52.112;5.144;2023-04-01T05:58:36;9.80;;;8.80;;
66402;SDS011;53212;52.112;5.144;2023-04-01T06:01:10;10.40;;;9.30;;
66402;SDS011;53212;52.112;5.144;2023-04-01T06:03:36;9.80;;;8.60;;
66402;SDS011;53212;52.112;5.144;2023-04-01T06:06:02;8.80;;;8.00;;
66402;SDS011;53212;52.112;5.144;2023-04-01T06:08:30;9.20;;;8.40;;
66402;SDS011;53212;52.112;5.144;2023-04-01T06:20:47;8.90;;;8.00;;
66402;SDS011;53212;52.112;5.144;2023-04-01T06:23:37;10.60;;;8.90;;
66402;SDS011;53212;52.112;5.144;2023-04-01T06:26:24;9.40;;;8.40;;
66402;SDS011;53212;52.112;5.144;2023-04-01T06:29:32;9.30;;;8.30;;
66402;SDS011;53212;52.112;5.144;2023-04-01T06:38:03;8.40;;;7.60;;
66402;SDS011;53212;52.112;5.144;2023-04-01T06:41:06;9.20;;;8.20;;
66402;SDS011;53212;52.112;5.144;2023-04-01T06:46:47;8.60;;;7.50;;
66402;SDS011;53212;52.112;5.144;2023-04-01T06:55:32;9.60;;;7.50;;
66402;SDS011;53212;52.112;5.144;2023-04-01T06:58:04;9.50;;;8.60;;
66402;SDS011;53212;52.112;5.144;2023-04-01T07:00:36;9.60;;;8.60;;
66402;SDS011;53212;52.112;5.144;2023-04-01T07:03:13;9.80;;;8.70;;
66402;SDS011;53212;52.112;5.144;2023-04-01T07:05:41;11.30;;;9.50;;
66402;SDS011;53212;52.112;5.144;2023-04-01T07:08:13;11.80;;;8.90;;
66402;SDS011;53212;52.112;5.144;2023-04-01T07:13:48;10.20;;;9.10;;
66402;SDS011;53212;52.112;5.144;2023-04-01T07:16:31;11.50;;;9.70;;
66402;SDS011;53212;52.112;5.144;2023-04-01T07:19:30;9.70;;;8.80;;
66402;SDS011;53212;52.112;5.144;2023-04-01T07:22:05;12.60;;;9.60;;
66402;SDS011;53212;52.112;5.144;2023-04-01T07:24:41;11.00;;;9.20;;
66402;SDS011;53212;52.112;5.144;2023-04-01T07:27:11;10.90;;;9.10;;
66402;SDS011;53212;52.112;5.144;2023-04-01T07:29:38;10.80;;;8.70;;
66402;SDS011;53212;52.112;5.144;2023-04-01T07:44:25;9.60;;;7.40;;
66402;SDS011;53212;52.112;5.144;2023-04-01T07:55:40;8.80;;;7.70;;
66402;SDS011;53212;52.112;5.144;2023-04-01T07:58:30;13.50;;;8.00;;
66402;SDS011;53212;52.112;5.144;2023-04-01T08:01:36;9.30;;;7.30;;
66402;SDS011;53212;52.112;5.144;2023-04-01T08:04:21;8.60;;;7.10;;
66402;SDS011;53212;52.112;5.144;2023-04-01T08:07:25;9.10;;;7.90;;
66402;SDS011;53212;52.112;5.144;2023-04-01T08:10:11;10.10;;;8.70;;
66402;SDS011;53212;52.112;5.144;2023-04-01T08:16:02;9.80;;;8.80;;
66402;SDS011;53212;52.112;5.144;2023-04-01T08:21:52;10.20;;;8.40;;
66402;SDS011;53212;52.112;5.144;2023-04-01T08:24:41;10.10;;;9.10;;
66402;SDS011;53212;52.112;5.144;2023-04-01T08:27:32;11.00;;;8.70;;
66402;SDS011;53212;52.112;5.144;2023-04-01T08:33:13;11.00;;;9.30;;
66402;SDS011;53212;52.112;5.144;2023-04-01T08:36:01;14.90;;;10.40;;
66402;SDS011;53212;52.112;5.144;2023-04-01T08:39:19;14.80;;;10.50;;
66402;SDS011;53212;52.112;5.144;2023-04-01T08:45:02;14.10;;;10.80;;
66402;SDS011;53212;52.112;5.144;2023-04-01T08:56:21;15.10;;;11.00;;
66402;SDS011;53212;52.112;5.144;2023-04-01T09:05:12;11.90;;;9.80;;
66402;SDS011;53212;52.112;5.144;2023-04-01T09:11:08;10.50;;;8.90;;
66402;SDS011;53212;52.112;5.144;2023-04-01T09:17:09;11.50;;;9.20;;
66402;SDS011;53212;52.112;5.144;2023-04-01T09:22:37;10.90;;;9.10;;
66402;SDS011;53212;52.112;5.144;2023-04-01T09:28:18;8.90;;;7.90;;
66402;SDS011;53212;52.112;5.144;2023-04-01T09:38:59;7.60;;;6.80;;
66402;SDS011;53212;52.112;5.144;2023-04-01T09:41:40;9.30;;;6.50;;
66402;SDS011;53212;52.112;5.144;2023-04-01T09:47:25;7.90;;;7.10;;
66402;SDS011;53212;52.112;5.144;2023-04-01T09:50:14;7.50;;;6.70;;
66402;SDS011;53212;52.112;5.144;2023-04-01T10:11:45;6.10;;;5.50;;
66402;SDS011;53212;52.112;5.144;2023-04-01T10:14:55;6.70;;;5.90;;
66402;SDS011;53212;52.112;5.144;2023-04-01T10:20:12;6.20;;;5.50;;
66402;SDS011;53212;52.112;5.144;2023-04-01T10:28:26;6.20;;;5.60;;
66402;SDS011;53212;52.112;5.144;2023-04-01T10:31:19;8.20;;;6.00;;
66402;SDS011;53212;52.112;5.144;2023-04-01T10:36:57;6.50;;;5.90;;
66402;SDS011;53212;52.112;5.144;2023-04-01T11:18:57;4.00;;;3.70;;
66402;SDS011;53212;52.112;5.144;2023-04-01T11:32:53;4.10;;;3.80;;
66402;SDS011;53212;52.112;5.144;2023-04-01T11:35:55;4.00;;;3.70;;
66402;SDS011;53212;52.112;5.144;2023-04-01T11:41:45;3.10;;;2.90;;
66402;SDS011;53212;52.112;5.144;2023-04-01T11:44:18;2.80;;;2.50;;
66402;SDS011;53212;52.112;5.144;2023-04-01T12:06:29;4.50;;;4.20;;
66402;SDS011;53212;52.112;5.144;2023-04-01T12:09:14;5.20;;;4.80;;
66402;SDS011;53212;52.112;5.144;2023-04-01T12:11:44;5.50;;;5.00;;
66402;SDS011;53212;52.112;5.144;2023-04-01T12:14:26;7.10;;;6.40;;
66402;SDS011;53212;52.112;5.144;2023-04-01T12:17:15;6.70;;;6.20;;
66402;SDS011;53212;52.112;5.144;2023-04-01T12:20:14;6.70;;;6.20;;
66402;SDS011;53212;52.112;5.144;2023-04-01T12:28:29;8.00;;;7.30;;
66402;SDS011;53212;52.112;5.144;2023-04-01T12:33:56;8.00;;;7.30;;
66402;SDS011;53212;52.112;5.144;2023-04-01T12:40:06;10.60;;;8.00;;
66402;SDS011;53212;52.112;5.144;2023-04-01T12:45:23;7.20;;;6.60;;
66402;SDS011;53212;52.112;5.144;2023-04-01T12:48:27;7.90;;;7.10;;
66402;SDS011;53212;52.112;5.144;2023-04-01T13:03:14;4.90;;;4.50;;
66402;SDS011;53212;52.112;5.144;2023-04-01T13:29:53;4.30;;;4.00;;
66402;SDS011;53212;52.112;5.144;2023-04-01T13:32:50;5.00;;;4.60;;
66402;SDS011;53212;52.112;5.144;2023-04-01T13:44:13;4.10;;;3.80;;
66402;SDS011;53212;52.112;5.144;2023-04-01T13:47:04;4.10;;;3.70;;
66402;SDS011;53212;52.112;5.144;2023-04-01T13:55:55;3.40;;;3.20;;
66402;SDS011;53212;52.112;5.144;2023-04-01T13:58:43;3.90;;;3.60;;
66402;SDS011;53212;52.112;5.144;2023-04-01T14:13:31;4.10;;;3.80;;
66402;SDS011;53212;52.112;5.144;2023-04-01T14:18:56;4.40;;;4.10;;
66402;SDS011;53212;52.112;5.144;2023-04-01T14:21:57;4.60;;;4.20;;
66402;SDS011;53212;52.112;5.144;2023-04-01T14:24:55;4.80;;;4.50;;
66402;SDS011;53212;52.112;5.144;2023-04-01T14:30:51;5.10;;;4.80;;
66402;SDS011;53212;52.112;5.144;2023-04-01T14:36:50;5.60;;;5.10;;
66402;SDS011;53212;52.112;5.144;2023-04-01T14:48:26;6.00;;;5.40;;
66402;SDS011;53212;52.112;5.144;2023-04-01T14:51:28;5.50;;;5.10;;
66402;SDS011;53212;52.112;5.144;2023-04-01T14:54:31;5.60;;;5.20;;
66402;SDS011;53212;52.112;5.144;2023-04-01T14:57:10;5.80;;;5.20;;
66402;SDS011;53212;52.112;5.144;2023-04-01T15:00:16;6.20;;;5.40;;
66402;SDS011;53212;52.112;5.144;2023-04-01T15:03:03;5.40;;;5.00;;
66402;SDS011;53212;52.112;5.144;2023-04-01T15:08:36;5.70;;;5.30;;
66402;SDS011;53212;52.112;5.144;2023-04-01T15:11:32;5.80;;;5.30;;
66402;SDS011;53212;52.112;5.144;2023-04-01T15:28:45;6.10;;;5.30;;
66402;SDS011;53212;52.112;5.144;2023-04-01T15:31:19;5.60;;;5.20;;
66402;SDS011;53212;52.112;5.144;2023-04-01T15:34:13;6.00;;;5.50;;
66402;SDS011;53212;52.112;5.144;2023-04-01T15:42:18;6.30;;;5.80;;
66402;SDS011;53212;52.112;5.144;2023-04-01T15:48:05;4.80;;;4.40;;
66402;SDS011;53212;52.112;5.144;2023-04-01T15:50:44;4.10;;;3.80;;
66402;SDS011;53212;52.112;5.144;2023-04-01T15:59:56;4.50;;;4.00;;
66402;SDS011;53212;52.112;5.144;2023-04-01T16:02:49;4.30;;;4.00;;
66402;SDS011;53212;52.112;5.144;2023-04-01T16:11:18;4.80;;;4.40;;
66402;SDS011;53212;52.112;5.144;2023-04-01T16:15:01;4.00;;;3.70;;
66402;SDS011;53212;52.112;5.144;2023-04-01T16:18:42;4.00;;;3.70;;
66402;SDS011;53212;52.112;5.144;2023-04-01T16:23:58;3.10;;;2.90;;
66402;SDS011;53212;52.112;5.144;2023-04-01T16:26:52;2.40;;;2.30;;
66402;SDS011;53212;52.112;5.144;2023-04-01T16:29:28;2.00;;;1.90;;
66402;SDS011;53212;52.112;5.144;2023-04-01T16:37:49;2.20;;;1.70;;
66402;SDS011;53212;52.112;5.144;2023-04-01T16:40:40;1.60;;;1.50;;
66402;SDS011;53212;52.112;5.144;2023-04-01T16:46:32;1.40;;;1.40;;
66402;SDS011;53212;52.112;5.144;2023-04-01T16:54:39;1.70;;;1.60;;
66402;SDS011;53212;52.112;5.144;2023-04-01T16:59:46;1.50;;;1.50;;
66402;SDS011;53212;52.112;5.144;2023-04-01T17:02:34;1.60;;;1.50;;
66402;SDS011;53212;52.112;5.144;2023-04-01T17:05:09;10.70;;;9.70;;
66402;SDS011;53212;52.112;5.144;2023-04-01T17:10:33;8.70;;;7.80;;
66402;SDS011;53212;52.112;5.144;2023-04-01T17:19:56;48.30;;;41.80;;
66402;SDS011;53212;52.112;5.144;2023-04-01T17:22:55;10.30;;;9.50;;
66402;SDS011;53212;52.112;5.144;2023-04-01T17:25:48;7.90;;;7.30;;
66402;SDS011;53212;52.112;5.144;2023-04-01T17:31:34;3.70;;;3.50;;
66402;SDS011;53212;52.112;5.144;2023-04-01T17:40:41;3.00;;;2.80;;
66402;SDS011;53212;52.112;5.144;2023-04-01T17:58:51;5.90;;;5.60;;
66402;SDS011;53212;52.112;5.144;2023-04-01T18:01:51;4.70;;;4.40;;
66402;SDS011;53212;52.112;5.144;2023-04-01T18:17:27;4.60;;;4.30;;
66402;SDS011;53212;52.112;5.144;2023-04-01T18:25:39;6.00;;;5.50;;
66402;SDS011;53212;52.112;5.144;2023-04-01T18:28:32;3.10;;;2.90;;
66402;SDS011;53212;52.112;5.144;2023-04-01T18:39:03;5.90;;;5.50;;
66402;SDS011;53212;52.112;5.144;2023-04-01T18:41:42;5.70;;;5.30;;
66402;SDS011;53212;52.112;5.144;2023-04-01T18:47:49;4.10;;;3.80;;
66402;SDS011;53212;52.112;5.144;2023-04-01T18:56:23;4.50;;;4.10;;
66402;SDS011;53212;52.112;5.144;2023-04-01T18:59:21;5.10;;;4.70;;
66402;SDS011;53212;52.112;5.144;2023-04-01T19:05:19;3.10;;;2.90;;
66402;SDS011;53212;52.112;5.144;2023-04-01T19:07:52;3.30;;;3.10;;
66402;SDS011;53212;52.112;5.144;2023-04-01T19:10:40;3.70;;;3.50;;
66402;SDS011;53212;52.112;5.144;2023-04-01T19:14:22;3.70;;;3.40;;
66402;SDS011;53212;52.112;5.144;2023-04-01T19:19:59;3.60;;;3.40;;
66402;SDS011;53212;52.112;5.144;2023-04-01T19:26:00;4.30;;;4.10;;
66402;SDS011;53212;52.112;5.144;2023-04-01T19:31:52;4.70;;;4.40;;
66402;SDS011;53212;52.112;5.144;2023-04-01T19:41:17;4.70;;;4.40;;
66402;SDS011;53212;52.112;5.144;2023-04-01T19:52:46;6.00;;;5.50;;
66402;SDS011;53212;52.112;5.144;2023-04-01T19:58:41;5.50;;;5.10;;
66402;SDS011;53212;52.112;5.144;2023-04-01T20:01:21;6.00;;;5.50;;
66402;SDS011;53212;52.112;5.144;2023-04-01T20:03:55;6.00;;;5.60;;
66402;SDS011;53212;52.112;5.144;2023-04-01T20:10:03;6.70;;;6.10;;
66402;SDS011;53212;52.112;5.144;2023-04-01T20:13:20;6.20;;;5.80;;
66402;SDS011;53212;52.112;5.144;2023-04-01T20:16:05;5.60;;;5.10;;
66402;SDS011;53212;52.112;5.144;2023-04-01T20:18:55;5.90;;;5.40;;
66402;SDS011;53212;52.112;5.144;2023-04-01T20:24:00;5.60;;;5.10;;
66402;SDS011;53212;52.112;5.144;2023-04-01T20:26:33;5.30;;;4.90;;
66402;SDS011;53212;52.112;5.144;2023-04-01T20:40:27;5.70;;;5.30;;
66402;SDS011;53212;52.112;5.144;2023-04-01T20:51:16;6.00;;;5.50;;
66402;SDS011;53212;52.112;5.144;2023-04-01T20:59:58;5.50;;;5.10;;
66402;SDS011;53212;52.112;5.144;2023-04-01T21:11:32;4.70;;;4.40;;
66402;SDS011;53212;52.112;5.144;2023-04-01T21:26:15;5.30;;;4.90;;
66402;SDS011;53212;52.112;5.144;2023-04-01T21:34:53;5.00;;;4.60;;
66402;SDS011;53212;52.112;5.144;2023-04-01T21:40:32;5.60;;;5.00;;
66402;SDS011;53212;52.112;5.144;2023-04-01T21:46:17;5.90;;;5.30;;
66402;SDS011;53212;52.112;5.144;2023-04-01T22:12:59;6.20;;;5.70;;
66402;SDS011;53212;52.112;5.144;2023-04-01T22:18:31;5.80;;;5.30;;
66402;SDS011;53212;52.112;5.144;2023-04-01T22:29:11;5.90;;;5.40;;
66402;SDS011;53212;52.112;5.144;2023-04-01T22:31:47;6.90;;;6.00;;
66402;SDS011;53212;52.112;5.144;2023-04-01T22:34:43;5.60;;;5.10;;
66402;SDS011;53212;52.112;5.144;2023-04-01T22:37:29;6.10;;;5.60;;
66402;SDS011;53212;52.112;5.144;2023-04-01T22:43:00;6.50;;;5.90;;
66402;SDS011;53212;52.112;5.144;2023-04-01T22:48:47;8.30;;;6.50;;
66402;SDS011;53212;52.112;5.144;2023-04-01T22:51:30;6.60;;;6.10;;
66402;SDS011;53212;52.112;5.144;2023-04-01T22:54:41;8.80;;;6.60;;
66402;SDS011;53212;52.112;5.144;2023-04-01T23:00:05;6.90;;;6.30;;
66402;SDS011;53212;52.112;5.144;2023-04-01T23:06:01;7.90;;;6.90;;
66402;SDS011;53212;52.112;5.144;2023-04-01T23:11:22;7.50;;;6.70;;
66402;SDS011;53212;52.112;5.144;2023-04-01T23:17:14;9.40;;;7.30;;
66402;SDS011;53212;52.112;5.144;2023-04-01T23:23:24;8.90;;;7.40;;
66402;SDS011;53212;52.112;5.144;2023-04-01T23:26:07;9.20;;;7.40;;
66402;SDS011;53212;52.112;5.144;2023-04-01T23:28:49;8.60;;;7.70;;
66402;SDS011;53212;52.112;5.144;2023-04-01T23:41:53;8.30;;;6.70;;
66402;SDS011;53212;52.112;5.144;2023-04-01T23:44:21;7.50;;;6.70;;
66402;SDS011;53212;52.112;5.144;2023-04-01T23:46:50;9.00;;;7.10;;
66402;SDS011;53212;52.112;5.144;2023-04-01T23:49:19;7.70;;;6.90;;
66402;SDS011;53212;52.112;5.144;2023-04-01T23:57:26;8.50;;;7.60;;
